Time;durP1;ratioP1;P1;durP2;ratioP2;P2;SDS_P1;SDS_P2;PMS_P1;PMS_P2;Temp;Humidity;BMP_temperature;BMP_pressure;BME280_temperature;BME280_humidity;BME280_pressure;Samples;Min_cycle;Max_cycle;Signal;HPM_P1;HPM_P2
2023/04/07 00:00:15;;;;;;;12.57;8.88;;;;;;;4.33;62.15;100937.19;5065887;28;20041;-80
2023/04/07 00:02:42;;;;;;;13.65;8.57;;;;;;;4.26;62.04;100938.78;5081442;28;20408;-80
2023/04/07 00:05:08;;;;;;;14.35;8.70;;;;;;;4.21;62.79;100937.81;5056046;28;20376;-81
2023/04/07 00:07:35;;;;;;;10.27;7.97;;;;;;;4.20;63.20;100936.06;5071332;28;20128;-81
2023/04/07 00:10:02;;;;;;;12.52;8.05;;;;;;;4.16;62.78;100929.97;5054984;28;20126;-81
2023/04/07 00:12:28;;;;;;;14.30;8.23;;;;;;;4.15;63.38;100930.78;5070809;28;20044;-81
2023/04/07 00:14:55;;;;;;;16.23;8.35;;;;;;;4.16;62.63;100936.84;5054142;28;20124;-80
2023/04/07 00:17:21;;;;;;;13.13;8.65;;;;;;;4.11;62.46;100937.63;5070517;28;20455;-81
2023/04/07 00:19:48;;;;;;;15.90;9.45;;;;;;;4.08;62.68;100937.56;5089721;23;20152;-81
2023/04/07 00:22:14;;;;;;;16.15;9.32;;;;;;;4.04;62.94;100942.63;5073887;28;20040;-81
2023/04/07 00:24:41;;;;;;;11.30;7.85;;;;;;;4.02;63.31;100936.56;5074235;28;20044;-81
2023/04/07 00:27:07;;;;;;;16.05;9.10;;;;;;;3.96;62.77;100937.28;5074018;28;20069;-80
2023/04/07 00:29:34;;;;;;;14.63;9.00;;;;;;;3.91;63.37;100939.78;5075010;28;20036;-80
2023/04/07 00:32:00;;;;;;;13.10;9.40;;;;;;;3.92;63.67;100943.22;5090625;28;20044;-81
2023/04/07 00:34:27;;;;;;;13.55;8.25;;;;;;;3.93;63.10;100943.25;5057185;28;20041;-80
2023/04/07 00:36:53;;;;;;;11.70;9.00;;;;;;;3.94;62.44;100939.84;5073706;28;20036;-81
2023/04/07 00:39:20;;;;;;;15.32;8.88;;;;;;;3.91;62.77;100933.69;5074404;28;20047;-81
2023/04/07 00:41:47;;;;;;;16.20;8.23;;;;;;;3.88;62.44;100933.63;5073881;28;20052;-81
2023/04/07 00:44:14;;;;;;;13.10;9.20;;;;;;;3.85;62.47;100931.84;5073744;28;20045;-81
2023/04/07 00:46:41;;;;;;;12.75;9.27;;;;;;;3.84;62.55;100932.69;5073945;28;20047;-80
2023/04/07 00:49:08;;;;;;;9.98;7.43;;;;;;;3.81;62.81;100927.44;5073084;28;20052;-81
2023/04/07 00:51:35;;;;;;;13.27;8.07;;;;;;;3.78;62.81;100937.72;5057024;28;20135;-80
2023/04/07 00:54:02;;;;;;;12.50;8.68;;;;;;;3.83;62.56;100938.69;5072967;28;20043;-81
2023/04/07 00:56:28;;;;;;;16.88;8.98;;;;;;;3.79;62.98;100931.69;5072469;28;20352;-81
2023/04/07 00:58:55;;;;;;;13.65;8.38;;;;;;;3.76;63.63;100942.00;5073176;28;20036;-81
2023/04/07 01:01:36;;;;;;;16.45;9.45;;;;;;;3.69;63.86;100933.22;5056445;28;20055;-81
2023/04/07 01:04:27;;;;;;;9.63;7.32;;;;;;;3.64;63.93;100929.66;5072358;28;20531;-79
2023/04/07 01:07:02;;;;;;;13.73;8.70;;;;;;;3.59;63.73;100926.94;5072475;28;20044;-81
2023/04/07 01:09:55;;;;;;;10.77;8.27;;;;;;;3.54;64.33;100928.53;5072925;28;20036;-81
2023/04/07 01:12:36;;;;;;;13.65;8.48;;;;;;;3.51;64.06;100938.81;5072898;28;20050;-81
2023/04/07 01:15:10;;;;;;;11.57;7.72;;;;;;;3.47;64.32;100924.91;5090068;28;20039;-81
2023/04/07 01:17:43;;;;;;;12.68;8.68;;;;;;;3.41;64.41;100926.50;5072575;28;20052;-81
2023/04/07 01:20:17;;;;;;;10.90;7.72;;;;;;;3.36;64.53;100928.94;5073260;28;20090;-80
2023/04/07 01:22:51;;;;;;;11.52;8.70;;;;;;;3.31;64.71;100920.19;5090502;28;20036;-80
2023/04/07 01:26:00;;;;;;;17.17;9.95;;;;;;;3.30;64.72;100923.66;5073374;28;20044;-80
2023/04/07 01:29:01;;;;;;;14.73;8.48;;;;;;;3.24;64.76;100921.75;5073448;28;20524;-79
2023/04/07 01:31:29;;;;;;;10.63;7.95;;;;;;;3.26;65.56;100926.97;5073288;28;20052;-80
2023/04/07 01:33:59;;;;;;;13.32;9.55;;;;;;;3.25;65.51;100923.50;5073274;28;20071;-79
2023/04/07 01:36:28;;;;;;;10.95;7.70;;;;;;;3.22;65.33;100918.28;5074185;28;20094;-79
2023/04/07 01:38:55;;;;;;;11.65;7.90;;;;;;;3.17;64.86;100925.03;5091237;28;20048;-80
2023/04/07 01:41:23;;;;;;;13.35;7.85;;;;;;;3.16;65.38;100919.84;5089446;28;20048;-80
2023/04/07 01:43:50;;;;;;;11.02;8.23;;;;;;;3.15;65.51;100921.53;5072727;28;20439;-80
2023/04/07 01:46:17;;;;;;;10.77;8.50;;;;;;;3.13;65.43;100923.22;5057299;28;20078;-79
2023/04/07 01:48:44;;;;;;;13.98;8.13;;;;;;;3.09;65.28;100922.25;5073323;28;20044;-80
2023/04/07 01:51:16;;;;;;;10.68;9.07;;;;;;;3.05;65.68;100919.53;5074715;28;20040;-80
2023/04/07 01:53:43;;;;;;;14.27;8.07;;;;;;;3.08;66.07;100919.63;5064396;28;20173;-79
2023/04/07 01:56:12;;;;;;;11.05;8.63;;;;;;;3.04;65.99;100916.09;5097458;28;20067;-80
2023/04/07 01:58:38;;;;;;;13.55;8.15;;;;;;;3.01;66.01;100930.63;5081660;28;20463;-79
2023/04/07 02:01:05;;;;;;;11.43;8.65;;;;;;;2.95;66.08;100921.88;5079491;28;20032;-80
2023/04/07 02:03:42;;;;;;;14.23;8.77;;;;;;;2.92;66.18;100920.91;5090099;28;20052;-81
2023/04/07 02:06:12;;;;;;;13.55;8.63;;;;;;;2.90;66.25;100918.31;5073193;28;20036;-80
2023/04/07 02:08:47;;;;;;;10.23;8.13;;;;;;;2.85;66.23;100926.78;5060045;28;20040;-81
2023/04/07 02:11:18;;;;;;;11.25;8.43;;;;;;;2.81;66.12;100921.50;5062785;28;20048;-79
2023/04/07 02:13:45;;;;;;;10.45;8.45;;;;;;;2.83;66.26;100915.50;5080866;28;20036;-80
2023/04/07 02:16:13;;;;;;;10.80;7.90;;;;;;;2.79;66.46;100923.19;5090636;28;20043;-80
2023/04/07 02:18:41;;;;;;;11.27;8.27;;;;;;;2.78;66.51;100921.44;5082195;28;20032;-81
2023/04/07 02:21:10;;;;;;;11.10;8.25;;;;;;;2.72;67.09;100917.81;5076728;28;20049;-80
2023/04/07 02:23:36;;;;;;;13.40;7.72;;;;;;;2.64;67.06;100918.47;5077498;28;20040;-81
2023/04/07 02:26:03;;;;;;;10.73;8.85;;;;;;;2.65;67.30;100924.53;5059916;28;20435;-80
2023/04/07 02:28:30;;;;;;;13.73;8.27;;;;;;;2.64;67.61;100917.59;5093163;28;20036;-80
2023/04/07 02:30:56;;;;;;;13.68;8.02;;;;;;;2.61;67.20;100915.81;5059582;28;20068;-80
2023/04/07 02:33:22;;;;;;;16.40;9.20;;;;;;;2.58;67.83;100915.72;5077966;28;20037;-80
2023/04/07 02:35:49;;;;;;;11.90;8.18;;;;;;;2.55;67.48;100925.97;5060036;28;20052;-79
2023/04/07 02:38:15;;;;;;;12.18;8.50;;;;;;;2.54;68.63;100928.50;5075578;28;20127;-80
2023/04/07 02:40:42;;;;;;;11.25;8.80;;;;;;;2.53;67.82;100927.66;5076247;28;20044;-80
2023/04/07 02:43:08;;;;;;;18.85;9.05;;;;;;;2.52;68.70;100925.03;5075835;28;20102;-80
2023/04/07 02:45:35;;;;;;;12.50;8.50;;;;;;;2.48;68.55;100924.06;5075756;28;20036;-80
2023/04/07 02:48:01;;;;;;;11.10;8.60;;;;;;;2.45;68.45;100924.84;5076171;28;20041;-81
2023/04/07 02:50:28;;;;;;;14.73;9.93;;;;;;;2.43;68.70;100926.50;5075709;28;20033;-81
2023/04/07 02:52:54;;;;;;;12.23;8.50;;;;;;;2.41;68.68;100927.28;5075330;28;20052;-80
2023/04/07 02:55:21;;;;;;;16.05;8.68;;;;;;;2.40;69.33;100929.00;5075988;28;20041;-80
2023/04/07 02:57:47;;;;;;;10.75;8.27;;;;;;;2.35;68.68;100930.56;5092184;28;20498;-80
2023/04/07 03:00:15;;;;;;;12.13;8.63;;;;;;;2.30;68.91;100927.84;5075370;28;20044;-80
2023/04/07 03:02:41;;;;;;;10.00;8.07;;;;;;;2.29;69.78;100925.22;5075499;28;20094;-80
2023/04/07 03:05:08;;;;;;;14.18;9.38;;;;;;;2.28;69.28;100918.28;5059050;28;20044;-80
2023/04/07 03:07:35;;;;;;;10.70;8.60;;;;;;;2.26;69.79;100922.56;5075572;28;20045;-80
2023/04/07 03:10:01;;;;;;;10.88;9.25;;;;;;;2.25;69.85;100918.22;5075496;28;20037;-81
2023/04/07 03:12:28;;;;;;;11.98;8.45;;;;;;;2.22;69.85;100919.00;5074832;28;20033;-81
2023/04/07 03:14:54;;;;;;;9.82;8.63;;;;;;;2.17;69.50;100930.91;5075567;28;20451;-80
2023/04/07 03:17:21;;;;;;;14.25;8.85;;;;;;;2.12;70.30;100928.16;5092525;28;20140;-79
2023/04/07 03:19:47;;;;;;;20.52;11.88;;;;;;;2.11;70.29;100931.59;5090425;28;20161;-80
2023/04/07 03:22:14;;;;;;;13.35;7.82;;;;;;;2.10;70.99;100928.94;5075358;28;20044;-80
2023/04/07 03:24:40;;;;;;;15.10;9.10;;;;;;;2.12;71.03;100927.31;5058277;28;20047;-80
2023/04/07 03:27:06;;;;;;;15.18;9.15;;;;;;;2.10;70.64;100928.94;5075139;28;20045;-81
2023/04/07 03:29:33;;;;;;;13.80;10.50;;;;;;;2.05;70.57;100926.25;5076223;28;20082;-80
2023/04/07 03:32:00;;;;;;;13.88;10.27;;;;;;;2.04;70.96;100931.38;5074568;28;20064;-80
2023/04/07 03:34:26;;;;;;;14.00;9.60;;;;;;;2.02;71.38;100927.84;5075039;28;20067;-80
2023/04/07 03:36:53;;;;;;;16.95;10.13;;;;;;;2.02;71.57;100927.84;5074948;28;20047;-80
2023/04/07 03:39:31;;;;;;;11.48;8.48;;;;;;;2.00;71.05;100927.81;5091197;28;20043;-80
2023/04/07 03:41:58;;;;;;;18.63;9.82;;;;;;;1.95;71.02;100931.97;5074623;28;20049;-80
2023/04/07 03:44:24;;;;;;;14.48;10.35;;;;;;;1.95;72.06;100925.06;5057633;28;20055;-80
2023/04/07 03:46:52;;;;;;;15.30;10.57;;;;;;;1.96;71.49;100928.56;5057994;28;20132;-80
2023/04/07 03:49:19;;;;;;;13.60;10.15;;;;;;;1.92;72.34;100926.72;5075378;28;20090;-82
2023/04/07 03:51:45;;;;;;;16.50;10.02;;;;;;;1.89;71.89;100930.06;5075471;28;20041;-80
2023/04/07 03:54:12;;;;;;;12.43;10.00;;;;;;;1.85;72.29;100925.63;5075049;28;20032;-81
2023/04/07 03:56:38;;;;;;;14.82;9.40;;;;;;;1.84;72.46;100925.59;5058929;28;20040;-81
2023/04/07 03:59:05;;;;;;;13.77;10.57;;;;;;;1.82;72.66;100922.97;5058354;28;20041;-81
2023/04/07 04:01:32;;;;;;;13.45;10.18;;;;;;;1.80;72.61;100928.06;5074447;28;20040;-80
2023/04/07 04:03:58;;;;;;;15.90;10.68;;;;;;;1.78;72.73;100926.28;5074924;28;20043;-80
2023/04/07 04:06:26;;;;;;;13.07;10.23;;;;;;;1.77;72.45;100933.16;5074792;28;20475;-80
2023/04/07 04:08:52;;;;;;;17.52;10.85;;;;;;;1.76;72.70;100931.41;5058010;28;20463;-81
2023/04/07 04:11:19;;;;;;;14.30;11.02;;;;;;;1.73;72.96;100935.56;5074429;28;20095;-80
2023/04/07 04:13:45;;;;;;;13.45;10.18;;;;;;;1.76;72.98;100943.41;5091215;28;20028;-80
2023/04/07 04:16:12;;;;;;;11.57;9.95;;;;;;;1.74;72.84;100943.38;5075141;28;20036;-79
2023/04/07 04:18:38;;;;;;;14.73;10.82;;;;;;;1.75;72.58;100941.69;5074843;28;20056;-80
2023/04/07 04:21:05;;;;;;;16.15;10.38;;;;;;;1.74;73.01;100950.25;5075869;28;20059;-79
2023/04/07 04:23:31;;;;;;;17.23;10.95;;;;;;;1.72;73.11;100945.03;5091577;28;20028;-80
2023/04/07 04:25:59;;;;;;;15.27;9.90;;;;;;;1.69;73.43;100937.19;5074457;28;20048;-79
2023/04/07 04:28:25;;;;;;;16.45;11.73;;;;;;;1.68;73.72;100942.28;5058926;28;20044;-79
2023/04/07 04:30:52;;;;;;;19.60;12.75;;;;;;;1.69;74.37;100949.22;5097639;28;20120;-79
2023/04/07 04:33:18;;;;;;;19.80;12.55;;;;;;;1.71;74.29;100948.44;5088256;28;20047;-80
2023/04/07 04:35:46;;;;;;;15.23;12.38;;;;;;;1.72;73.96;100951.88;5075540;28;20064;-80
2023/04/07 04:38:12;;;;;;;20.55;12.65;;;;;;;1.72;73.96;100951.88;5074360;28;20040;-80
2023/04/07 04:40:39;;;;;;;20.25;11.60;;;;;;;1.67;73.62;100954.34;5073733;28;20060;-80
2023/04/07 04:43:06;;;;;;;22.48;13.43;;;;;;;1.63;73.95;100955.03;5073628;28;20566;-80
2023/04/07 04:45:33;;;;;;;19.27;11.60;;;;;;;1.61;74.48;100960.16;5073792;28;20562;-80
2023/04/07 04:47:59;;;;;;;16.27;12.30;;;;;;;1.62;74.25;100967.06;5073847;28;20036;-80
2023/04/07 04:50:26;;;;;;;15.98;11.25;;;;;;;1.60;74.13;100961.00;5073672;28;20037;-80
2023/04/07 04:52:53;;;;;;;20.52;13.25;;;;;;;1.60;74.46;100967.84;5074206;28;20037;-80
2023/04/07 04:55:20;;;;;;;19.60;12.68;;;;;;;1.56;74.54;100964.28;5073483;28;20044;-81
2023/04/07 04:57:47;;;;;;;18.63;12.00;;;;;;;1.58;74.17;100970.38;5075999;28;20150;-80
2023/04/07 05:00:14;;;;;;;19.05;12.00;;;;;;;1.56;74.50;100969.44;5074015;28;20033;-79
2023/04/07 05:02:40;;;;;;;20.92;12.32;;;;;;;1.61;74.38;100972.19;5075300;28;20048;-80
2023/04/07 05:05:09;;;;;;;20.08;12.43;;;;;;;1.61;74.39;100972.19;5096436;28;20036;-80
2023/04/07 05:07:36;;;;;;;18.25;12.48;;;;;;;1.64;73.85;100973.19;5073668;28;20112;-80
2023/04/07 05:10:02;;;;;;;14.88;11.73;;;;;;;1.64;73.67;100977.44;5073325;28;20037;-79
2023/04/07 05:12:29;;;;;;;16.63;11.10;;;;;;;1.62;73.87;100974.81;5073261;28;20474;-80
2023/04/07 05:14:55;;;;;;;16.67;12.00;;;;;;;1.68;73.40;100979.28;5073098;28;20040;-80
2023/04/07 05:17:22;;;;;;;19.15;13.38;;;;;;;1.72;73.45;100988.00;5073437;28;20471;-81
2023/04/07 05:19:48;;;;;;;26.70;13.82;;;;;;;1.75;73.91;100986.41;5072599;28;20040;-80
2023/04/07 05:22:15;;;;;;;23.15;12.95;;;;;;;1.76;72.95;100983.03;5056414;28;20478;-80
2023/04/07 05:24:41;;;;;;;18.52;12.27;;;;;;;1.79;73.09;100990.84;5073040;28;20036;-81
2023/04/07 05:27:08;;;;;;;20.08;12.20;;;;;;;1.81;73.07;100988.31;5057181;28;20327;-80
2023/04/07 05:29:35;;;;;;;21.02;13.02;;;;;;;1.80;73.10;100990.03;5072789;28;20111;-80
2023/04/07 05:32:01;;;;;;;19.10;11.95;;;;;;;1.81;73.28;100985.72;5073200;28;20045;-80
2023/04/07 05:34:28;;;;;;;17.77;10.75;;;;;;;1.83;73.21;100986.66;5072430;28;20116;-79
2023/04/07 05:36:55;;;;;;;18.35;12.27;;;;;;;1.81;73.27;100976.31;5089443;28;20111;-79
2023/04/07 05:39:21;;;;;;;18.02;11.52;;;;;;;1.88;72.76;100989.38;5072800;28;20037;-82
2023/04/07 05:41:48;;;;;;;15.20;11.10;;;;;;;1.89;72.04;100985.97;5072509;28;20044;-82
2023/04/07 05:44:14;;;;;;;14.10;10.95;;;;;;;1.90;72.67;100987.75;5089040;28;20040;-81
2023/04/07 05:46:41;;;;;;;18.30;12.43;;;;;;;1.92;72.72;100986.97;5073448;28;20032;-81
2023/04/07 05:49:07;;;;;;;20.13;11.75;;;;;;;1.95;72.72;100992.22;5072624;28;20059;-79
2023/04/07 05:51:34;;;;;;;17.65;12.43;;;;;;;1.97;72.12;100987.97;5089634;28;20093;-80
2023/04/07 05:54:03;;;;;;;20.02;11.68;;;;;;;2.05;71.97;100984.78;5072832;28;20047;-81
2023/04/07 05:56:29;;;;;;;18.92;12.65;;;;;;;2.08;71.57;100988.31;5056745;28;20048;-81
2023/04/07 05:58:57;;;;;;;18.80;12.60;;;;;;;2.11;71.58;100991.00;5072740;28;20119;-81
2023/04/07 06:01:24;;;;;;;16.63;12.93;;;;;;;2.15;71.15;100999.69;5088987;28;20536;-80
2023/04/07 06:03:51;;;;;;;16.80;11.35;;;;;;;2.25;70.89;100996.56;5072472;28;20052;-80
2023/04/07 06:06:17;;;;;;;18.70;12.52;;;;;;;2.31;70.63;100996.78;5072810;28;20047;-81
2023/04/07 06:08:44;;;;;;;21.70;11.50;;;;;;;2.37;70.03;101001.22;5072661;28;20040;-79
2023/04/07 06:11:11;;;;;;;16.00;10.25;;;;;;;2.42;69.38;100993.63;5072483;28;20055;-81
2023/04/07 06:13:37;;;;;;;15.23;11.82;;;;;;;2.49;69.44;101000.75;5089206;28;20093;-80
2023/04/07 06:16:05;;;;;;;16.63;12.10;;;;;;;2.54;69.19;101006.03;5072407;28;20040;-81
2023/04/07 06:18:33;;;;;;;16.10;12.63;;;;;;;2.61;68.72;101005.41;5072855;28;20054;-81
2023/04/07 06:20:59;;;;;;;18.25;12.65;;;;;;;2.70;68.08;101007.34;5089030;28;20086;-81
2023/04/07 06:23:26;;;;;;;14.73;11.50;;;;;;;2.79;67.71;101013.69;5056069;28;20086;-81
2023/04/07 06:25:52;;;;;;;25.05;13.27;;;;;;;2.92;67.04;101011.44;5073297;28;20040;-80
2023/04/07 06:28:19;;;;;;;18.77;11.55;;;;;;;3.04;66.71;101006.63;5073009;28;20048;-81
2023/04/07 06:30:47;;;;;;;16.00;11.00;;;;;;;3.21;66.09;101013.97;5072834;28;20036;-81
2023/04/07 06:33:13;;;;;;;15.48;11.40;;;;;;;3.37;65.35;101018.69;5089545;28;20098;-81
2023/04/07 06:35:41;;;;;;;18.15;11.65;;;;;;;3.55;64.65;101017.44;5072633;28;20040;-80
2023/04/07 06:38:10;;;;;;;18.77;12.88;;;;;;;3.84;62.76;101019.88;5072630;28;20044;-81
2023/04/07 06:40:36;;;;;;;19.38;11.63;;;;;;;4.25;61.34;101019.97;5056626;28;20082;-81
2023/04/07 06:43:03;;;;;;;14.55;11.73;;;;;;;4.60;59.92;101019.88;5073187;28;20029;-81
2023/04/07 06:45:30;;;;;;;17.88;11.50;;;;;;;4.96;58.92;101022.34;5074676;28;20048;-81
2023/04/07 06:47:56;;;;;;;15.70;10.45;;;;;;;5.08;58.34;101021.72;5085648;28;20042;-80
2023/04/07 06:50:23;;;;;;;14.40;10.88;;;;;;;5.20;57.76;101022.81;5078028;28;20040;-80
2023/04/07 06:52:49;;;;;;;15.68;10.60;;;;;;;5.30;56.31;101032.50;5073178;28;20047;-80
2023/04/07 06:55:16;;;;;;;15.65;11.15;;;;;;;5.30;56.18;101024.72;5057736;28;20048;-80
2023/04/07 06:57:42;;;;;;;12.63;10.02;;;;;;;5.21;56.97;101024.56;5078911;28;20042;-80
2023/04/07 07:00:10;;;;;;;17.08;10.70;;;;;;;5.14;56.69;101029.63;5076438;28;20045;-81
2023/04/07 07:02:37;;;;;;;14.82;10.20;;;;;;;5.22;56.52;101036.69;5076010;28;20059;-81
2023/04/07 07:05:04;;;;;;;15.90;10.90;;;;;;;5.37;55.97;101034.38;5093346;28;20039;-81
2023/04/07 07:07:31;;;;;;;19.42;11.25;;;;;;;5.60;55.20;101033.91;5075725;28;20032;-81
2023/04/07 07:09:57;;;;;;;12.93;10.48;;;;;;;6.00;54.38;101033.72;5076000;28;20033;-81
2023/04/07 07:12:24;;;;;;;14.45;10.68;;;;;;;6.37;53.51;101032.56;5075989;28;20044;-80
2023/04/07 07:14:50;;;;;;;14.63;10.82;;;;;;;6.57;52.40;101034.56;5076003;28;20032;-81
2023/04/07 07:17:17;;;;;;;17.75;11.52;;;;;;;6.67;52.63;101032.97;5076460;28;20040;-80
2023/04/07 07:19:44;;;;;;;16.17;11.60;;;;;;;6.78;51.78;101040.06;5092347;28;20037;-81
2023/04/07 07:22:10;;;;;;;16.13;10.95;;;;;;;7.02;51.52;101038.63;5058825;28;20442;-79
2023/04/07 07:24:36;;;;;;;16.02;10.93;;;;;;;7.35;50.12;101044.19;5075333;28;20378;-79
2023/04/07 07:27:03;;;;;;;13.20;10.73;;;;;;;7.48;49.13;101047.81;5092406;28;20044;-80
2023/04/07 07:29:30;;;;;;;14.30;10.30;;;;;;;7.67;49.76;101047.13;5078080;28;20045;-80
2023/04/07 07:32:07;;;;;;;12.07;9.45;;;;;;;8.07;48.70;101041.34;5059406;28;20037;-80
2023/04/07 07:34:33;;;;;;;14.52;10.65;;;;;;;8.48;47.50;101051.25;5075970;28;20473;-81
2023/04/07 07:37:00;;;;;;;11.50;9.57;;;;;;;8.77;46.63;101047.91;5097222;28;20439;-81
2023/04/07 07:39:27;;;;;;;14.32;10.52;;;;;;;9.27;45.85;101049.84;5059727;28;20466;-81
2023/04/07 07:41:54;;;;;;;13.93;9.35;;;;;;;9.72;44.37;101043.84;5074692;28;20390;-80
2023/04/07 07:44:21;;;;;;;13.13;9.85;;;;;;;9.79;42.97;101045.59;5075912;28;20150;-80
2023/04/07 07:46:49;;;;;;;11.63;9.60;;;;;;;9.81;43.83;101051.69;5074520;28;20046;-81
2023/04/07 07:49:16;;;;;;;18.33;11.18;;;;;;;9.97;43.92;101044.69;5074561;28;20040;-81
2023/04/07 07:51:42;;;;;;;14.60;10.85;;;;;;;9.95;43.14;101049.09;5074878;28;20463;-81
2023/04/07 07:54:09;;;;;;;10.35;9.07;;;;;;;9.98;43.29;101053.44;5075246;28;20040;-81
2023/04/07 07:56:35;;;;;;;11.57;10.25;;;;;;;10.24;42.96;101053.41;5075098;28;20036;-81
2023/04/07 07:59:05;;;;;;;11.13;9.60;;;;;;;11.36;41.68;101056.56;5074354;28;20043;-81
2023/04/07 08:01:31;;;;;;;10.55;8.75;;;;;;;12.30;39.07;101055.00;5058294;28;20040;-82
2023/04/07 08:04:01;;;;;;;11.82;10.02;;;;;;;13.04;38.01;101057.69;5074576;28;20386;-80
2023/04/07 08:06:28;;;;;;;10.85;9.75;;;;;;;13.58;37.25;101056.09;5091007;28;20039;-81
2023/04/07 08:08:54;;;;;;;10.82;9.70;;;;;;;13.63;35.74;101058.66;5058070;28;20379;-81
2023/04/07 08:11:21;;;;;;;10.23;9.23;;;;;;;13.71;36.06;101056.78;5074717;28;20051;-81
2023/04/07 08:13:48;;;;;;;10.88;9.50;;;;;;;14.11;34.91;101057.91;5074751;28;20047;-80
2023/04/07 08:16:15;;;;;;;10.50;9.40;;;;;;;14.37;34.43;101055.66;5074279;28;20037;-81
2023/04/07 08:18:41;;;;;;;12.93;9.38;;;;;;;14.51;33.66;101057.16;5091630;28;20068;-83
2023/04/07 08:21:08;;;;;;;11.80;9.40;;;;;;;14.36;33.98;101053.06;5091325;28;20059;-81
2023/04/07 08:23:34;;;;;;;10.45;8.63;;;;;;;15.08;33.63;101056.06;5058884;28;20139;-80
2023/04/07 08:26:01;;;;;;;11.00;8.98;;;;;;;15.37;32.95;101059.88;5057742;28;20032;-79
2023/04/07 08:28:29;;;;;;;9.32;8.35;;;;;;;16.18;32.34;101058.84;5073942;28;20044;-81
2023/04/07 08:30:55;;;;;;;9.95;8.50;;;;;;;16.43;31.16;101052.91;5074247;28;20582;-80
2023/04/07 08:33:22;;;;;;;8.50;7.53;;;;;;;16.46;30.61;101055.47;5074110;28;20036;-80
2023/04/07 08:35:49;;;;;;;10.40;9.02;;;;;;;16.74;29.41;101052.03;5057885;28;20037;-81
2023/04/07 08:38:16;;;;;;;12.27;8.13;;;;;;;16.73;29.88;101059.13;5073826;28;20041;-81
2023/04/07 08:40:43;;;;;;;9.60;8.10;;;;;;;16.51;29.47;101070.25;5074200;28;20039;-80
2023/04/07 08:43:10;;;;;;;9.55;8.35;;;;;;;16.23;29.26;101066.63;5057865;28;20506;-81
2023/04/07 08:45:40;;;;;;;11.52;10.32;;;;;;;16.46;28.91;101066.88;5057590;28;20044;-81
2023/04/07 08:48:17;;;;;;;9.85;8.43;;;;;;;16.32;29.23;101069.03;5090372;28;20051;-81
2023/04/07 08:50:51;;;;;;;9.63;7.25;;;;;;;16.69;29.36;101075.97;5074671;28;20048;-81
2023/04/07 08:53:24;;;;;;;9.55;7.18;;;;;;;16.76;28.52;101074.03;5075240;28;20094;-81
2023/04/07 08:55:51;;;;;;;8.00;7.30;;;;;;;16.70;28.83;101073.28;5059364;28;20036;-81
2023/04/07 08:58:19;;;;;;;9.60;7.60;;;;;;;16.63;28.87;101082.28;5075213;28;20044;-81
2023/04/07 09:00:47;;;;;;;8.13;7.30;;;;;;;16.83;28.95;101078.22;5091055;28;20048;-81
2023/04/07 09:03:16;;;;;;;9.77;7.72;;;;;;;16.95;28.64;101077.06;5070367;28;20044;-81
2023/04/07 09:05:46;;;;;;;7.95;6.85;;;;;;;16.96;28.71;101070.84;5092522;28;20054;-82
2023/04/07 09:08:14;;;;;;;10.57;7.43;;;;;;;16.99;28.53;101074.25;5079554;28;20036;-81
2023/04/07 09:10:41;;;;;;;7.35;6.65;;;;;;;17.55;27.88;101071.72;5073836;28;20101;-81
2023/04/07 09:13:07;;;;;;;9.05;7.05;;;;;;;18.07;27.52;101074.50;5073353;28;20117;-82
2023/04/07 09:15:34;;;;;;;9.70;7.47;;;;;;;17.86;27.62;101074.28;5073201;28;20041;-82
2023/04/07 09:18:01;;;;;;;9.02;7.13;;;;;;;18.17;27.07;101067.97;5089099;28;20493;-82
2023/04/07 09:20:27;;;;;;;6.93;6.32;;;;;;;18.53;26.63;101070.25;5073584;28;20051;-81
2023/04/07 09:22:55;;;;;;;9.20;7.65;;;;;;;18.91;26.50;101065.38;5073332;28;20040;-82
2023/04/07 09:25:26;;;;;;;8.65;7.05;;;;;;;19.74;26.16;101071.06;5073888;28;20051;-80
2023/04/07 09:28:04;;;;;;;8.43;7.15;;;;;;;19.71;24.82;101069.41;5073162;28;20044;-81
2023/04/07 09:30:33;;;;;;;8.20;7.22;;;;;;;18.62;26.09;101074.38;5073151;28;20094;-82
2023/04/07 09:33:01;;;;;;;6.85;6.15;;;;;;;19.24;25.48;101062.38;5089431;28;20056;-81
2023/04/07 09:35:28;;;;;;;6.18;5.57;;;;;;;19.87;24.73;101067.00;5057553;28;20041;-81
2023/04/07 09:38:15;;;;;;;7.25;6.63;;;;;;;20.07;23.57;101070.63;5073265;28;20043;-82
2023/04/07 09:40:41;;;;;;;7.25;6.55;;;;;;;19.63;24.46;101071.47;5090125;28;20139;-81
2023/04/07 09:43:18;;;;;;;6.88;6.28;;;;;;;19.24;24.53;101069.47;5072824;28;20032;-81
2023/04/07 09:45:45;;;;;;;7.80;6.13;;;;;;;18.83;25.22;101068.28;5089165;28;20044;-81
2023/04/07 09:48:21;;;;;;;6.53;5.93;;;;;;;19.54;24.05;101062.06;5072793;28;20050;-81
2023/04/07 09:50:49;;;;;;;8.20;6.30;;;;;;;19.81;23.98;101068.09;5072381;28;20060;-81
2023/04/07 09:53:17;;;;;;;8.15;7.00;;;;;;;19.63;23.81;101068.81;5073003;28;20048;-81
2023/04/07 09:55:45;;;;;;;7.32;6.57;;;;;;;18.85;24.24;101071.75;5055584;28;20040;-81
2023/04/07 09:58:13;;;;;;;7.15;6.40;;;;;;;19.39;24.30;101070.69;5072633;28;20482;-81
2023/04/07 10:00:42;;;;;;;7.05;6.35;;;;;;;20.58;23.40;101071.09;5091088;28;20079;-82
2023/04/07 10:03:09;;;;;;;9.10;6.88;;;;;;;20.82;22.88;101058.53;5076606;28;20044;-81
2023/04/07 10:05:40;;;;;;;9.20;6.57;;;;;;;21.12;22.56;101074.88;5058090;28;20051;-82
2023/04/07 10:08:10;;;;;;;7.72;6.63;;;;;;;21.80;21.70;101073.47;5073805;28;20127;-82
2023/04/07 10:10:39;;;;;;;6.97;6.28;;;;;;;21.66;21.57;101078.63;5074796;28;20124;-81
2023/04/07 10:13:06;;;;;;;7.03;6.40;;;;;;;21.93;21.79;101071.06;5056666;28;20105;-82
2023/04/07 10:15:33;;;;;;;6.90;6.22;;;;;;;22.67;20.97;101069.97;5073696;28;20041;-81
2023/04/07 10:18:00;;;;;;;6.65;5.97;;;;;;;22.88;20.69;101064.38;5073485;28;20479;-81
2023/04/07 10:20:28;;;;;;;7.43;6.57;;;;;;;21.15;21.44;101060.56;5072410;28;20056;-81
2023/04/07 10:23:03;;;;;;;11.60;6.93;;;;;;;21.15;21.83;101064.06;5073630;28;20040;-82
2023/04/07 10:25:35;;;;;;;6.53;5.90;;;;;;;21.22;21.91;101072.63;5073399;28;20064;-82
2023/04/07 10:28:08;;;;;;;8.90;6.68;;;;;;;20.12;22.45;101073.94;5073152;28;20122;-82
2023/04/07 10:30:35;;;;;;;9.63;6.20;;;;;;;20.65;21.70;101078.72;5094419;28;20127;-81
2023/04/07 10:33:02;;;;;;;9.15;7.82;;;;;;;20.22;22.26;101080.59;5080269;28;20086;-80
2023/04/07 10:35:29;;;;;;;8.05;7.25;;;;;;;20.17;22.42;101083.44;5096329;28;20050;-81
2023/04/07 10:38:09;;;;;;;9.63;7.32;;;;;;;20.40;22.76;101073.63;5080875;28;20040;-80
2023/04/07 10:40:38;;;;;;;8.77;6.90;;;;;;;21.87;21.92;101074.88;5080541;28;20044;-80
2023/04/07 10:43:08;;;;;;;8.35;7.57;;;;;;;22.28;21.31;101065.72;5065527;28;20040;-82
2023/04/07 10:45:47;;;;;;;8.20;7.40;;;;;;;22.31;21.08;101078.91;5066184;28;20051;-82
2023/04/07 10:48:16;;;;;;;10.40;8.25;;;;;;;22.01;21.39;101073.34;5078336;28;20538;-82
2023/04/07 10:50:51;;;;;;;10.63;7.60;;;;;;;21.13;22.33;101068.63;5064615;28;20087;-81
2023/04/07 10:53:17;;;;;;;8.90;7.82;;;;;;;21.96;22.08;101070.88;5081913;28;20037;-81
2023/04/07 10:56:00;;;;;;;9.02;8.13;;;;;;;22.18;21.63;101068.00;5081596;28;20115;-82
2023/04/07 10:58:36;;;;;;;9.00;7.78;;;;;;;22.25;21.61;101079.22;5099291;28;20133;-81
2023/04/07 11:01:09;;;;;;;8.48;7.68;;;;;;;22.28;21.70;101066.59;5080905;28;20044;-81
2023/04/07 11:03:42;;;;;;;;;;;;;;;23.41;20.30;101068.63;5080588;28;20033;-80
2023/04/07 11:06:11;;;;;;;8.45;7.57;;;;;;;23.95;19.65;101072.72;5062453;28;19917;-82
2023/04/07 11:08:41;;;;;;;9.95;7.65;;;;;;;24.48;19.61;101073.13;5061090;28;20037;-81
2023/04/07 11:11:10;;;;;;;8.27;7.47;;;;;;;24.98;19.99;101080.81;5077094;28;20040;-81
2023/04/07 11:13:46;;;;;;;8.45;6.78;;;;;;;25.31;19.14;101071.59;5076606;28;20125;-81
2023/04/07 11:16:16;;;;;;;8.88;7.97;;;;;;;25.25;18.36;101063.00;5096371;28;20044;-81
2023/04/07 11:18:44;;;;;;;7.78;7.07;;;;;;;24.58;18.64;101065.41;5087183;28;20150;-82
2023/04/07 11:21:11;;;;;;;7.82;7.13;;;;;;;24.76;18.91;101069.63;5078626;28;20332;-82
2023/04/07 11:23:44;;;;;;;8.43;7.47;;;;;;;24.94;18.94;101062.28;5060588;28;20167;-81
2023/04/07 11:26:14;;;;;;;8.90;7.32;;;;;;;25.33;18.84;101069.66;5077099;28;20040;-82